Time;durP1;ratioP1;P1;durP2;ratioP2;P2;SDS_P1;SDS_P2;PMS_P1;PMS_P2;Temp;Humidity;BMP_temperature;BMP_pressure;BME280_temperature;BME280_humidity;BME280_pressure;Samples;Min_cycle;Max_cycle;Signal;HPM_P1;HPM_P2
2020/12/13 00:01:31;;;;;;;17.63;9.98;;;;;;;5.80;96.74;97800.09;5035170;28;20050;-73
2020/12/13 00:03:56;;;;;;;20.80;10.50;;;;;;;5.81;96.34;97806.28;5048481;28;20048;-72
2020/12/13 00:06:21;;;;;;;16.73;9.50;;;;;;;5.80;96.61;97810.00;5038762;28;20588;-70
2020/12/13 00:08:47;;;;;;;15.43;9.18;;;;;;;5.81;96.41;97809.78;5052146;22;20103;-70
2020/12/13 00:11:12;;;;;;;15.35;9.18;;;;;;;5.83;96.63;97807.75;5066253;28;20489;-70
2020/12/13 00:13:37;;;;;;;15.10;8.35;;;;;;;5.76;96.06;97806.03;5072029;28;20445;-70
2020/12/13 00:16:02;;;;;;;15.45;8.98;;;;;;;5.76;96.24;97812.22;5071349;28;20033;-70
2020/12/13 00:18:28;;;;;;;14.13;8.77;;;;;;;5.84;96.17;97811.25;5072155;28;20489;-70
2020/12/13 00:20:53;;;;;;;14.45;9.32;;;;;;;5.85;96.13;97808.38;5037431;28;20048;-70
2020/12/13 00:23:18;;;;;;;18.13;9.98;;;;;;;5.95;96.34;97816.13;5056739;28;20044;-70
2020/12/13 00:25:44;;;;;;;14.90;9.18;;;;;;;5.82;95.74;97818.69;5050362;28;20033;-70
2020/12/13 00:28:09;;;;;;;17.17;10.00;;;;;;;5.87;96.03;97825.13;5041276;28;20076;-70
2020/12/13 00:30:34;;;;;;;18.67;10.30;;;;;;;5.87;95.76;97824.28;5050100;28;20019;-70
2020/12/13 00:33:02;;;;;;;17.85;11.25;;;;;;;5.75;96.10;97824.00;5067560;28;20037;-70
2020/12/13 00:35:27;;;;;;;18.63;11.05;;;;;;;5.70;95.79;97816.53;5071898;28;20012;-69
2020/12/13 00:37:53;;;;;;;20.92;10.93;;;;;;;5.61;96.00;97811.53;5069467;28;20009;-71
2020/12/13 00:40:18;;;;;;;28.85;11.35;;;;;;;5.76;95.83;97828.34;5056564;28;20089;-71
2020/12/13 00:42:43;;;;;;;19.55;10.25;;;;;;;5.77;95.78;97827.31;5042443;28;20041;-70
2020/12/13 00:45:09;;;;;;;20.98;10.10;;;;;;;5.70;96.24;97821.91;5065570;28;20029;-70
2020/12/13 00:47:34;;;;;;;26.75;12.10;;;;;;;5.82;95.91;97829.44;5071313;28;20033;-71
2020/12/13 00:49:59;;;;;;;24.92;13.10;;;;;;;5.86;96.16;97834.19;5069498;28;20036;-72
2020/12/13 00:52:24;;;;;;;25.15;12.52;;;;;;;5.73;96.09;97823.38;5042681;28;20079;-70
2020/12/13 00:54:50;;;;;;;26.20;12.70;;;;;;;5.73;96.04;97834.09;5035080;28;20071;-70
2020/12/13 00:57:15;;;;;;;20.50;12.13;;;;;;;5.89;95.82;97824.91;5035914;28;20394;-70
2020/12/13 00:59:40;;;;;;;20.88;12.07;;;;;;;5.94;95.84;97846.66;5037872;28;20028;-70
2020/12/13 01:02:06;;;;;;;19.10;11.45;;;;;;;5.99;95.51;97851.44;5040906;28;20068;-72
2020/12/13 01:04:32;;;;;;;18.05;10.80;;;;;;;5.93;95.83;97845.81;5037138;28;20500;-71
2020/12/13 01:07:02;;;;;;;21.10;11.05;;;;;;;5.75;95.80;97845.47;5047871;28;20028;-70
2020/12/13 01:09:28;;;;;;;21.92;10.50;;;;;;;5.83;95.74;97853.38;5055688;28;20044;-70
2020/12/13 01:11:53;;;;;;;21.65;11.63;;;;;;;5.96;95.79;97866.09;5054328;28;20470;-72
2020/12/13 01:14:18;;;;;;;22.38;11.73;;;;;;;5.82;95.56;97859.78;5054566;28;20108;-69
2020/12/13 01:16:43;;;;;;;20.65;11.50;;;;;;;5.93;95.87;97883.41;5035192;28;20025;-71
2020/12/13 01:19:09;;;;;;;19.98;10.80;;;;;;;5.89;95.63;97878.59;5035804;28;20032;-71
2020/12/13 01:21:34;;;;;;;20.02;11.68;;;;;;;5.92;96.00;97881.72;5035668;28;20045;-70
2020/12/13 01:23:59;;;;;;;19.42;11.02;;;;;;;5.82;96.04;97888.47;5049860;28;20082;-70
2020/12/13 01:26:25;;;;;;;21.05;11.25;;;;;;;5.83;96.14;97892.81;5049179;28;20057;-71
2020/12/13 01:28:52;;;;;;;24.38;11.52;;;;;;;5.90;95.73;97885.63;5060565;28;20501;-71
2020/12/13 01:31:19;;;;;;;22.17;11.02;;;;;;;5.80;95.96;97885.97;5050304;28;20460;-70
2020/12/13 01:33:45;;;;;;;20.52;10.88;;;;;;;5.87;96.22;97888.72;5049449;28;20052;-70
2020/12/13 01:36:21;;;;;;;24.23;11.93;;;;;;;5.84;95.82;97891.78;5051112;28;20041;-71
2020/12/13 01:38:48;;;;;;;21.63;10.63;;;;;;;5.76;95.82;97889.25;5063363;28;20068;-71
2020/12/13 01:41:17;;;;;;;19.38;11.40;;;;;;;5.72;96.21;97883.44;5063366;28;20025;-70
2020/12/13 01:43:56;;;;;;;25.83;11.43;;;;;;;5.73;95.88;97885.09;5056609;28;20021;-70
2020/12/13 01:46:22;;;;;;;17.08;10.13;;;;;;;5.81;95.87;97874.19;5054019;28;20093;-72
2020/12/13 01:48:47;;;;;;;19.00;9.15;;;;;;;5.57;96.28;97856.69;5072606;28;20036;-72
2020/12/13 01:51:27;;;;;;;23.52;10.43;;;;;;;5.73;95.99;97893.13;5060023;28;20033;-72
2020/12/13 01:53:54;;;;;;;17.48;10.13;;;;;;;5.84;96.20;97907.88;5070044;28;20084;-70
2020/12/13 01:56:20;;;;;;;20.00;10.82;;;;;;;5.79;96.08;97902.25;5036736;28;20044;-71
2020/12/13 01:58:50;;;;;;;20.05;9.98;;;;;;;5.66;96.28;97877.00;5054082;28;20542;-71
2020/12/13 02:01:16;;;;;;;20.80;10.25;;;;;;;5.77;95.91;97883.69;5069242;28;20041;-71
2020/12/13 02:03:53;;;;;;;18.67;9.57;;;;;;;5.91;96.19;97909.59;5052595;28;20028;-72
2020/12/13 02:06:22;;;;;;;17.92;10.85;;;;;;;5.85;96.24;97906.88;5066434;28;20021;-70
2020/12/13 02:08:51;;;;;;;23.27;11.05;;;;;;;5.76;96.21;97899.97;5050144;28;20021;-72
2020/12/13 02:11:19;;;;;;;18.02;10.25;;;;;;;5.86;96.19;97912.03;5050807;28;20570;-69
2020/12/13 02:13:46;;;;;;;24.42;10.05;;;;;;;5.95;95.94;97915.44;5036817;28;20485;-72
2020/12/13 02:16:12;;;;;;;15.73;9.15;;;;;;;5.76;96.18;97890.06;5051288;28;20094;-72
2020/12/13 02:18:40;;;;;;;22.25;9.73;;;;;;;5.82;95.74;97905.41;5056330;28;20024;-71
2020/12/13 02:21:05;;;;;;;19.58;9.68;;;;;;;5.71;96.23;97887.13;5059808;28;20025;-70
2020/12/13 02:23:31;;;;;;;19.48;9.52;;;;;;;5.69;96.00;97895.41;5055897;28;20056;-71
2020/12/13 02:25:56;;;;;;;20.65;10.18;;;;;;;5.81;96.25;97906.41;5057038;28;20040;-71
2020/12/13 02:28:22;;;;;;;17.08;9.63;;;;;;;5.67;96.00;97888.56;5057706;28;20029;-71
2020/12/13 02:30:47;;;;;;;17.90;9.07;;;;;;;5.74;96.25;97894.81;5054557;28;20036;-71
2020/12/13 02:33:13;;;;;;;19.15;9.60;;;;;;;5.89;96.18;97927.78;5057344;28;20458;-72
2020/12/13 02:35:39;;;;;;;19.42;9.63;;;;;;;5.90;95.96;97934.78;5051024;28;20049;-72
2020/12/13 02:38:04;;;;;;;19.52;10.18;;;;;;;5.94;96.23;97937.94;5063258;28;20075;-71
2020/12/13 02:40:30;;;;;;;18.50;9.95;;;;;;;5.81;95.75;97919.00;5053822;28;20047;-71
2020/12/13 02:42:55;;;;;;;18.63;9.98;;;;;;;5.86;95.87;97928.13;5050134;28;20075;-70
2020/12/13 02:45:20;;;;;;;16.77;9.02;;;;;;;5.88;96.05;97944.88;5060699;28;20021;-71
2020/12/13 02:47:46;;;;;;;17.83;9.57;;;;;;;5.95;96.04;97936.06;5064861;28;20031;-72
2020/12/13 02:50:11;;;;;;;21.23;10.32;;;;;;;5.82;96.09;97931.44;5065005;28;20033;-72
2020/12/13 02:52:37;;;;;;;21.83;10.38;;;;;;;5.79;96.00;97927.28;5066657;28;20054;-72
2020/12/13 02:55:02;;;;;;;17.40;10.23;;;;;;;5.89;95.91;97938.50;5063361;28;20048;-72
2020/12/13 02:57:28;;;;;;;20.10;10.40;;;;;;;5.80;95.90;97936.97;5069325;28;20032;-71
2020/12/13 02:59:53;;;;;;;21.10;9.52;;;;;;;5.89;95.74;97945.69;5079806;28;20051;-72
2020/12/13 03:02:18;;;;;;;16.05;9.35;;;;;;;5.86;95.92;97936.19;5062402;28;20044;-72
2020/12/13 03:04:44;;;;;;;19.80;10.55;;;;;;;5.81;95.66;97943.16;5035127;28;20486;-72
2020/12/13 03:07:09;;;;;;;18.67;10.13;;;;;;;5.87;95.45;97958.50;5046174;28;20033;-71
2020/12/13 03:09:36;;;;;;;19.20;9.93;;;;;;;5.84;95.73;97951.69;5047083;28;20092;-71
2020/12/13 03:12:02;;;;;;;18.58;10.35;;;;;;;5.96;95.89;97969.97;5043041;28;20032;-72
2020/12/13 03:14:27;;;;;;;19.70;9.00;;;;;;;5.80;96.13;97955.75;5052677;28;20025;-71
2020/12/13 03:16:53;;;;;;;20.08;10.23;;;;;;;5.78;95.80;97957.81;5042382;28;20402;-69
2020/12/13 03:19:18;;;;;;;17.92;10.07;;;;;;;5.75;95.82;97960.88;5056423;28;20033;-72
2020/12/13 03:21:43;;;;;;;18.98;10.15;;;;;;;5.67;95.62;97951.09;5045540;28;20035;-71
2020/12/13 03:24:10;;;;;;;19.92;9.93;;;;;;;5.69;95.74;97956.28;5045004;28;20054;-71
2020/12/13 03:26:36;;;;;;;17.95;9.13;;;;;;;5.64;95.85;97950.69;5071115;28;20025;-71
2020/12/13 03:29:01;;;;;;;18.88;10.52;;;;;;;5.59;95.86;97963.84;5047165;28;20032;-71
2020/12/13 03:31:26;;;;;;;21.67;10.32;;;;;;;5.76;95.94;97980.50;5055860;28;20079;-69
2020/12/13 03:33:52;;;;;;;22.10;10.85;;;;;;;5.59;95.95;97971.88;5033976;28;20041;-71
2020/12/13 03:36:17;;;;;;;17.45;9.63;;;;;;;5.79;95.68;97990.84;5053871;28;20028;-72
2020/12/13 03:38:42;;;;;;;19.40;9.45;;;;;;;5.59;95.91;97969.19;5067874;28;20054;-72
2020/12/13 03:41:08;;;;;;;17.20;9.18;;;;;;;5.70;95.79;97999.03;5049596;28;20222;-72
2020/12/13 03:43:33;;;;;;;19.60;10.07;;;;;;;5.67;95.78;97990.53;5034905;28;20025;-71
2020/12/13 03:45:58;;;;;;;14.57;8.77;;;;;;;5.50;95.66;97963.13;5045678;28;20030;-71
2020/12/13 03:48:24;;;;;;;12.57;8.02;;;;;;;5.67;95.68;97987.84;5046102;28;20108;-72
2020/12/13 03:50:49;;;;;;;14.73;7.47;;;;;;;5.59;95.41;97990.66;5054325;28;20056;-71
2020/12/13 03:53:14;;;;;;;15.95;7.82;;;;;;;5.58;95.79;97991.66;5058096;28;20052;-71
2020/12/13 03:55:41;;;;;;;15.48;8.02;;;;;;;5.45;95.79;97966.41;5046839;28;20021;-71
2020/12/13 03:58:07;;;;;;;12.90;7.53;;;;;;;5.63;95.83;97991.94;5034937;28;20075;-71
2020/12/13 04:00:33;;;;;;;14.07;8.63;;;;;;;5.60;95.90;97990.47;5061442;28;20029;-72
2020/12/13 04:02:59;;;;;;;16.73;8.50;;;;;;;5.55;95.78;97989.38;5039649;28;20047;-71
2020/12/13 04:05:25;;;;;;;13.30;8.50;;;;;;;5.54;95.90;97985.03;5040128;28;20037;-71
2020/12/13 04:07:52;;;;;;;12.70;7.72;;;;;;;5.65;95.67;98019.41;5027453;28;20032;-72
2020/12/13 04:10:18;;;;;;;12.98;7.38;;;;;;;5.60;95.84;98009.25;5066592;28;20026;-69
2020/12/13 04:12:43;;;;;;;13.95;7.20;;;;;;;5.48;95.60;97983.97;5052241;28;20028;-72
2020/12/13 04:15:09;;;;;;;14.85;7.53;;;;;;;5.56;95.91;97999.94;5042310;28;20037;-70
2020/12/13 04:17:34;;;;;;;11.80;7.07;;;;;;;5.78;95.94;98024.91;5032295;28;20025;-70
2020/12/13 04:20:00;;;;;;;9.48;6.57;;;;;;;5.75;95.54;98033.34;5047213;28;20032;-70
2020/12/13 04:22:25;;;;;;;10.43;6.75;;;;;;;5.79;95.41;98041.84;5039627;28;20078;-70
2020/12/13 04:24:50;;;;;;;10.30;6.47;;;;;;;5.76;95.72;98039.53;5039781;28;20048;-70
2020/12/13 04:27:16;;;;;;;11.75;6.88;;;;;;;5.78;95.21;98043.69;5056140;28;20109;-70
2020/12/13 04:29:41;;;;;;;8.85;5.65;;;;;;;5.69;95.46;98034.94;5048943;28;20017;-70
2020/12/13 04:32:07;;;;;;;12.27;6.35;;;;;;;5.76;95.35;98045.72;5057796;28;20036;-70
2020/12/13 04:34:33;;;;;;;11.55;6.63;;;;;;;5.78;95.74;98024.91;5049128;28;20039;-70
2020/12/13 04:36:59;;;;;;;11.27;6.20;;;;;;;5.85;95.29;98049.97;5058528;28;20029;-70
2020/12/13 04:39:24;;;;;;;11.57;6.80;;;;;;;5.85;95.25;98055.34;5046772;28;20383;-70
2020/12/13 04:41:50;;;;;;;11.07;6.18;;;;;;;5.82;95.48;98054.91;5040317;28;20031;-70
2020/12/13 04:44:15;;;;;;;11.25;6.20;;;;;;;5.79;95.43;98057.94;5043896;28;20036;-70
2020/12/13 04:46:45;;;;;;;11.00;5.80;;;;;;;5.70;96.06;98043.81;5049158;28;20033;-71
2020/12/13 04:49:10;;;;;;;;;;;;;;;5.88;95.58;98060.31;5071111;28;20021;-70
2020/12/13 04:51:40;;;;;;;9.32;5.25;;;;;;;5.92;95.74;98066.97;5052179;28;20027;-70
2020/12/13 04:54:06;;;;;;;13.02;6.47;;;;;;;5.82;95.52;98054.91;5043698;28;20017;-70
2020/12/13 04:56:34;;;;;;;8.55;4.95;;;;;;;5.82;95.77;98065.63;5058181;28;20043;-70
2020/12/13 04:59:04;;;;;;;9.63;6.10;;;;;;;5.93;96.02;98071.34;5040061;28;20037;-70
2020/12/13 05:01:30;;;;;;;9.60;5.72;;;;;;;5.87;95.44;98055.16;5053184;28;20108;-70
2020/12/13 05:03:55;;;;;;;11.63;5.32;;;;;;;5.83;95.22;98073.47;5048039;28;20506;-70
2020/12/13 05:06:21;;;;;;;11.40;5.68;;;;;;;5.85;95.77;98076.81;5047750;28;20383;-70
2020/12/13 05:08:47;;;;;;;8.85;5.88;;;;;;;5.80;95.69;98047.03;5037639;28;20029;-70
2020/12/13 05:11:14;;;;;;;9.25;5.70;;;;;;;5.84;95.56;98060.88;5038620;28;20025;-70
2020/12/13 05:13:39;;;;;;;7.65;5.10;;;;;;;5.77;95.34;98074.25;5042452;28;20035;-70
2020/12/13 05:16:09;;;;;;;10.38;5.75;;;;;;;5.67;95.63;98053.09;5042845;28;20032;-70
2020/12/13 05:18:38;;;;;;;10.27;5.43;;;;;;;5.72;95.58;98082.03;5051525;28;20025;-71
2020/12/13 05:21:04;;;;;;;10.43;5.90;;;;;;;5.73;95.27;98072.94;5057268;28;20118;-70
2020/12/13 05:23:31;;;;;;;8.27;5.32;;;;;;;5.82;95.51;98087.09;5049941;28;20115;-70
2020/12/13 05:25:57;;;;;;;10.05;5.63;;;;;;;5.68;95.46;98076.19;5039843;28;20030;-70
2020/12/13 05:28:23;;;;;;;8.98;5.50;;;;;;;5.75;95.65;98089.72;5038912;28;20025;-70
2020/12/13 05:30:49;;;;;;;11.95;5.78;;;;;;;5.78;95.75;98097.38;5038813;28;20077;-70
2020/12/13 05:33:28;;;;;;;8.30;5.03;;;;;;;5.81;95.60;98099.66;5042545;28;20020;-70
2020/12/13 05:36:02;;;;;;;8.20;5.65;;;;;;;5.76;95.51;98099.41;5053707;28;20035;-70
2020/12/13 05:38:39;;;;;;;10.52;5.93;;;;;;;5.73;95.60;98099.78;5043782;28;20033;-70
2020/12/13 05:41:05;;;;;;;13.95;5.85;;;;;;;5.72;95.57;98104.34;5039041;28;20028;-71
2020/12/13 05:43:45;;;;;;;12.10;6.60;;;;;;;5.71;95.53;98102.69;5045006;28;20364;-70
2020/12/13 05:51:43;;;;;;;11.45;6.47;;;;;;;5.78;95.61;98113.47;5027406;28;20053;-71
2020/12/13 05:54:23;;;;;;;11.10;6.45;;;;;;;5.65;95.56;98103.41;5054177;28;20116;-71
2020/12/13 05:56:52;;;;;;;11.82;6.78;;;;;;;5.75;95.83;98118.41;5055314;28;20050;-70
2020/12/13 05:59:18;;;;;;;11.43;7.10;;;;;;;5.79;95.85;98120.53;5049827;28;20033;-71
2020/12/13 06:01:47;;;;;;;15.77;6.85;;;;;;;5.78;95.43;98115.34;5060008;28;20519;-71
2020/12/13 06:04:15;;;;;;;12.30;6.50;;;;;;;5.79;95.82;98115.16;5054331;28;20024;-71
2020/12/13 06:06:44;;;;;;;15.10;7.78;;;;;;;5.89;95.90;98133.63;5051102;28;20025;-71
2020/12/13 06:11:45;;;;;;;12.63;6.93;;;;;;;5.90;95.34;98122.72;5033695;28;20041;-72
2020/12/13 06:14:20;;;;;;;13.32;7.05;;;;;;;5.91;95.82;98134.28;5034240;28;20096;-72
2020/12/13 06:16:46;;;;;;;14.40;7.45;;;;;;;5.99;95.24;98136.88;5036510;28;20071;-71
2020/12/13 06:19:14;;;;;;;14.65;7.38;;;;;;;5.92;95.08;98126.03;5051521;28;20045;-72
2020/12/13 06:21:40;;;;;;;12.35;7.05;;;;;;;5.99;95.25;98144.09;5050897;28;20037;-74
2020/12/13 06:24:07;;;;;;;13.80;7.53;;;;;;;5.93;95.76;98142.97;5050820;28;20018;-72
2020/12/13 06:26:33;;;;;;;19.02;7.72;;;;;;;5.94;94.99;98144.66;5050984;28;20076;-72
2020/12/13 06:28:58;;;;;;;14.98;7.60;;;;;;;5.91;95.13;98145.84;5050766;28;20022;-74
2020/12/13 06:31:24;;;;;;;14.85;8.55;;;;;;;5.85;95.54;98146.59;5050982;28;20040;-74
2020/12/13 06:33:49;;;;;;;15.38;8.60;;;;;;;5.89;95.31;98150.59;5051359;28;20021;-77
2020/12/13 06:36:15;;;;;;;19.65;9.48;;;;;;;5.90;95.45;98156.78;5050559;28;20591;-74
2020/12/13 06:38:41;;;;;;;16.95;8.63;;;;;;;5.90;95.84;98164.84;5046379;28;20387;-73
2020/12/13 06:41:12;;;;;;;18.38;9.43;;;;;;;5.86;95.88;98159.00;5045698;28;20541;-75
2020/12/13 06:43:54;;;;;;;21.73;10.27;;;;;;;6.04;95.55;98166.66;5047805;28;20025;-74
2020/12/13 06:46:20;;;;;;;16.35;9.25;;;;;;;5.93;95.74;98165.31;5047239;28;20036;-74
2020/12/13 06:48:46;;;;;;;16.40;8.68;;;;;;;5.92;95.88;98171.69;5046789;28;20025;-73
2020/12/13 06:51:17;;;;;;;16.77;9.20;;;;;;;5.87;95.98;98166.03;5046247;28;20396;-75
2020/12/13 06:53:44;;;;;;;19.65;10.68;;;;;;;5.95;95.51;98180.38;5037561;28;20045;-73
2020/12/13 06:56:12;;;;;;;20.00;9.90;;;;;;;6.03;95.97;98191.88;5019397;28;20021;-75
2020/12/13 06:58:55;;;;;;;14.17;7.07;;;;;;;5.99;96.02;98192.41;5036931;28;20044;-75
2020/12/13 07:01:24;;;;;;;18.48;9.73;;;;;;;5.96;95.77;98184.75;5042795;28;20288;-74
2020/12/13 07:03:50;;;;;;;15.23;9.25;;;;;;;6.02;95.87;98197.41;5036847;28;20025;-71
2020/12/13 07:06:19;;;;;;;18.30;8.85;;;;;;;5.97;96.25;98208.72;5046798;28;20056;-71
2020/12/13 07:08:56;;;;;;;17.48;9.07;;;;;;;6.00;95.92;98200.31;5040541;28;20047;-74
2020/12/13 07:11:24;;;;;;;15.18;8.13;;;;;;;5.96;95.92;98207.06;5035614;28;20111;-74
2020/12/13 07:13:51;;;;;;;14.60;8.07;;;;;;;6.07;96.11;98205.72;5013653;28;20500;-72
2020/12/13 07:16:31;;;;;;;13.45;7.22;;;;;;;6.05;96.11;98223.88;5032163;28;20085;-71
2020/12/13 07:19:03;;;;;;;13.20;8.43;;;;;;;6.12;95.67;98225.63;5032252;28;20022;-70
2020/12/13 07:21:29;;;;;;;11.88;7.53;;;;;;;6.14;95.81;98220.06;5032783;28;20116;-70
2020/12/13 07:23:57;;;;;;;13.80;7.82;;;;;;;6.20;95.44;98237.28;5032347;28;20447;-70
2020/12/13 07:26:23;;;;;;;13.90;7.90;;;;;;;6.18;95.74;98240.16;5015794;28;20017;-70
2020/12/13 07:28:48;;;;;;;14.73;7.75;;;;;;;6.10;95.70;98234.88;5033597;28;20029;-70
2020/12/13 07:31:18;;;;;;;20.15;8.32;;;;;;;6.11;95.31;98244.63;5033837;28;20029;-70
2020/12/13 07:33:44;;;;;;;13.88;7.88;;;;;;;6.07;95.12;98243.34;5031905;28;20025;-70
2020/12/13 07:36:11;;;;;;;13.50;8.18;;;;;;;6.14;95.82;98255.81;5031719;28;20033;-70
2020/12/13 07:38:38;;;;;;;15.63;7.88;;;;;;;6.08;95.68;98253.91;5033225;28;20025;-72
2020/12/13 07:41:13;;;;;;;16.60;8.30;;;;;;;6.09;95.78;98265.47;5038924;28;20044;-72
2020/12/13 07:43:38;;;;;;;13.05;7.53;;;;;;;6.11;95.91;98256.19;5040931;28;20040;-71
2020/12/13 07:46:15;;;;;;;20.25;8.95;;;;;;;6.12;95.46;98268.59;5025040;28;20030;-71
2020/12/13 07:48:41;;;;;;;13.95;8.27;;;;;;;6.09;95.41;98277.03;5039941;28;20087;-72
2020/12/13 07:51:06;;;;;;;13.25;7.80;;;;;;;6.17;95.97;98277.97;5023358;28;20021;-72
2020/12/13 07:53:31;;;;;;;11.50;6.88;;;;;;;6.00;95.64;98263.88;5046433;28;20122;-72
2020/12/13 07:55:56;;;;;;;14.30;8.13;;;;;;;6.17;95.35;98286.00;5030609;28;20029;-72
2020/12/13 07:58:22;;;;;;;17.02;8.77;;;;;;;6.14;95.65;98289.91;5028419;28;20167;-72
2020/12/13 08:00:47;;;;;;;14.05;8.98;;;;;;;6.17;95.59;98286.84;5026441;28;20034;-72
2020/12/13 08:03:13;;;;;;;18.55;9.95;;;;;;;6.21;95.35;98289.97;5049201;28;20068;-73
2020/12/13 08:05:41;;;;;;;18.45;10.13;;;;;;;6.16;95.34;98285.19;5034367;28;20033;-72
2020/12/13 08:08:07;;;;;;;16.65;9.50;;;;;;;6.17;95.26;98288.69;5034653;28;20021;-73
2020/12/13 08:10:33;;;;;;;11.35;7.40;;;;;;;6.19;95.45;98292.88;5033158;28;20107;-74
2020/12/13 08:12:59;;;;;;;14.15;8.95;;;;;;;6.16;95.76;98301.31;5033431;28;20056;-69
2020/12/13 08:15:25;;;;;;;19.65;9.07;;;;;;;6.24;95.40;98303.88;5033651;28;20087;-70
2020/12/13 08:18:04;;;;;;;16.65;8.73;;;;;;;6.27;95.48;98311.56;5028897;28;20038;-69
2020/12/13 08:20:31;;;;;;;16.48;9.55;;;;;;;6.31;95.29;98307.50;5034419;28;20052;-70
2020/12/13 08:22:59;;;;;;;14.63;8.57;;;;;;;6.32;95.30;98313.69;5034466;28;20072;-70
2020/12/13 08:25:25;;;;;;;12.73;8.73;;;;;;;6.21;94.89;98301.56;5015225;28;20082;-71
2020/12/13 08:27:51;;;;;;;14.52;7.95;;;;;;;6.16;95.21;98306.69;5030617;28;20441;-70
2020/12/13 08:30:18;;;;;;;14.73;8.93;;;;;;;6.23;94.72;98310.25;5032118;28;20446;-69
2020/12/13 08:32:44;;;;;;;13.07;8.77;;;;;;;6.28;94.95;98323.94;5033108;28;20029;-69
2020/12/13 08:35:12;;;;;;;18.65;8.93;;;;;;;6.31;94.90;98328.13;5032894;28;20028;-69
2020/12/13 08:37:38;;;;;;;13.70;9.48;;;;;;;6.31;94.87;98323.59;5033469;28;20087;-69
2020/12/13 08:40:10;;;;;;;13.23;9.07;;;;;;;6.33;94.42;98336.84;5033175;28;20100;-70
2020/12/13 08:42:36;;;;;;;12.77;8.32;;;;;;;6.34;94.58;98330.44;5027979;28;20030;-69
2020/12/13 08:45:01;;;;;;;15.30;8.90;;;;;;;6.29;94.76;98339.06;5013355;28;20021;-70
2020/12/13 08:47:32;;;;;;;15.32;8.75;;;;;;;6.42;94.67;98340.25;5031668;28;20168;-69
2020/12/13 08:49:58;;;;;;;13.75;8.85;;;;;;;6.43;94.57;98341.91;5036343;28;20427;-70
2020/12/13 08:52:32;;;;;;;14.95;8.10;;;;;;;6.46;94.55;98339.69;5041526;28;20026;-70
2020/12/13 08:55:08;;;;;;;14.13;8.23;;;;;;;6.52;94.77;98343.47;5042884;28;20510;-70
2020/12/13 08:57:35;;;;;;;14.25;8.80;;;;;;;6.57;94.47;98354.47;5042506;28;20049;-69
2020/12/13 09:00:05;;;;;;;15.50;8.73;;;;;;;6.55;94.29;98352.00;5037797;28;20036;-70
2020/12/13 09:02:31;;;;;;;12.52;7.80;;;;;;;6.59;93.71;98358.66;5040661;28;20038;-69
2020/12/13 09:04:57;;;;;;;15.90;8.40;;;;;;;6.65;94.07;98359.75;5043735;28;20183;-70
2020/12/13 09:07:23;;;;;;;12.80;7.70;;;;;;;6.72;93.63;98368.72;5043775;28;20052;-70
2020/12/13 09:09:49;;;;;;;15.15;8.75;;;;;;;6.73;93.57;98375.78;5044782;28;20479;-70
2020/12/13 09:12:20;;;;;;;13.48;8.98;;;;;;;6.74;93.61;98376.63;5043548;28;20037;-70
2020/12/13 09:14:46;;;;;;;14.48;8.50;;;;;;;6.64;94.16;98379.59;5032750;28;20052;-69
2020/12/13 09:17:11;;;;;;;13.82;9.25;;;;;;;6.74;93.78;98377.44;5054892;28;20033;-69
2020/12/13 09:19:51;;;;;;;29.60;14.23;;;;;;;6.72;93.46;98389.41;5053545;28;20029;-70
2020/12/13 09:22:21;;;;;;;18.95;8.73;;;;;;;6.59;94.29;98387.38;5054555;28;20040;-68
2020/12/13 09:24:48;;;;;;;13.90;8.27;;;;;;;6.61;93.81;98388.03;5037700;28;20025;-73
2020/12/13 09:27:19;;;;;;;16.42;8.88;;;;;;;6.67;93.79;98389.13;5034869;28;20501;-74
2020/12/13 09:29:46;;;;;;;14.00;8.60;;;;;;;6.72;94.10;98392.09;5036792;28;20025;-73
2020/12/13 09:32:13;;;;;;;15.55;9.05;;;;;;;6.80;94.05;98391.97;5033111;28;20030;-75
2020/12/13 09:34:38;;;;;;;15.98;9.75;;;;;;;6.82;93.61;98394.50;5034822;28;20029;-74
2020/12/13 09:37:07;;;;;;;13.35;8.82;;;;;;;6.84;93.32;98403.19;5034876;28;20075;-76
2020/12/13 09:39:32;;;;;;;11.23;7.97;;;;;;;6.75;92.94;98389.84;5034497;28;20026;-70
2020/12/13 09:41:58;;;;;;;13.55;8.70;;;;;;;6.86;93.44;98398.44;5025167;28;20126;-71
2020/12/13 09:44:24;;;;;;;18.13;10.85;;;;;;;6.92;93.44;98405.78;5034183;28;20025;-75
2020/12/13 09:46:54;;;;;;;17.00;9.90;;;;;;;6.75;93.37;98392.53;5033911;28;20025;-74
2020/12/13 09:49:20;;;;;;;13.88;9.07;;;;;;;6.74;92.93;98393.56;5033687;28;20017;-76
2020/12/13 09:51:46;;;;;;;20.48;9.93;;;;;;;6.78;93.55;98392.16;5022372;28;20025;-74
2020/12/13 09:54:11;;;;;;;15.63;7.80;;;;;;;6.61;92.67;98389.91;5029373;28;20033;-74
2020/12/13 09:56:36;;;;;;;13.02;7.60;;;;;;;6.83;92.89;98404.22;5033640;28;20498;-74
2020/12/13 09:59:02;;;;;;;14.02;7.60;;;;;;;6.82;93.00;98402.56;5034004;28;20017;-73
2020/12/13 10:01:27;;;;;;;13.27;7.75;;;;;;;6.86;92.70;98401.13;5031851;28;21757;-76
2020/12/13 10:03:54;;;;;;;12.40;7.57;;;;;;;6.95;92.62;98405.41;5034341;28;20631;-74
2020/12/13 10:09:02;;;;;;;10.27;6.25;;;;;;;6.90;91.96;98415.88;5035257;28;20026;-73
2020/12/13 10:11:31;;;;;;;11.60;6.88;;;;;;;6.92;91.74;98416.53;5033773;28;20057;-71
2020/12/13 10:13:57;;;;;;;10.93;5.95;;;;;;;6.96;91.48;98420.50;5034266;28;20112;-70
2020/12/13 10:16:23;;;;;;;11.02;5.82;;;;;;;6.87;91.01;98424.34;5034342;28;20087;-70
2020/12/13 10:18:49;;;;;;;13.25;5.65;;;;;;;6.95;91.15;98416.16;5034297;28;20101;-70
2020/12/13 10:21:25;;;;;;;7.30;4.78;;;;;;;6.82;90.99;98421.38;5033640;28;20120;-70
2020/12/13 10:23:51;;;;;;;8.98;4.82;;;;;;;6.86;91.34;98433.41;5034383;28;20023;-70
2020/12/13 10:26:17;;;;;;;9.25;4.82;;;;;;;6.98;91.28;98432.72;5034021;28;20543;-71
2020/12/13 10:28:42;;;;;;;6.93;4.40;;;;;;;6.96;90.45;98425.88;5034272;28;20072;-70
2020/12/13 10:31:10;;;;;;;8.38;4.90;;;;;;;6.97;89.60;98427.56;5033725;28;20063;-69
2020/12/13 10:33:39;;;;;;;7.15;4.25;;;;;;;7.07;88.79;98425.38;5033483;28;20036;-70
2020/12/13 10:36:06;;;;;;;8.40;4.90;;;;;;;7.14;88.67;98426.28;5015737;28;20076;-70
2020/12/13 10:38:31;;;;;;;7.53;4.25;;;;;;;7.14;88.37;98437.03;5033534;28;20029;-69
2020/12/13 10:40:56;;;;;;;6.45;4.00;;;;;;;7.21;87.52;98427.19;5033650;28;20051;-71
2020/12/13 10:43:23;;;;;;;7.13;4.07;;;;;;;7.38;88.00;98441.22;5033987;28;20033;-70
2020/12/13 10:45:48;;;;;;;7.88;3.63;;;;;;;7.43;87.02;98429.88;5026108;28;20032;-70
2020/12/13 10:48:13;;;;;;;5.28;3.45;;;;;;;7.50;86.36;98433.47;5033548;28;20021;-70
2020/12/13 10:50:38;;;;;;;4.88;2.97;;;;;;;7.64;86.16;98426.34;5033207;28;20033;-71
2020/12/13 10:53:04;;;;;;;6.40;3.42;;;;;;;7.59;85.79;98428.78;5033841;28;20116;-71
2020/12/13 10:55:30;;;;;;;6.43;3.67;;;;;;;7.69;86.12;98427.44;5033958;28;20032;-72
2020/12/13 10:57:55;;;;;;;9.18;4.15;;;;;;;7.73;85.98;98429.72;5032414;28;20025;-72
2020/12/13 11:00:23;;;;;;;7.32;3.80;;;;;;;7.68;85.77;98423.09;5031696;28;20091;-71
2020/12/13 11:02:48;;;;;;;9.93;4.55;;;;;;;7.52;86.32;98434.13;5026910;28;20037;-70
2020/12/13 11:05:14;;;;;;;7.78;3.70;;;;;;;7.65;85.92;98434.25;5033755;28;20117;-72
2020/12/13 11:07:39;;;;;;;8.25;3.63;;;;;;;7.48;85.86;98419.38;5033083;28;20033;-71
2020/12/13 11:10:04;;;;;;;41.75;10.90;;;;;;;7.71;85.71;98431.81;5028846;28;20017;-71
2020/12/13 11:12:30;;;;;;;16.00;6.03;;;;;;;7.82;87.64;98433.97;5032521;28;20087;-66
2020/12/13 11:14:55;;;;;;;9.68;3.40;;;;;;;8.04;86.33;98432.03;5032297;28;20049;-66
2020/12/13 11:17:20;;;;;;;4.45;2.60;;;;;;;8.00;83.56;98430.78;5032146;28;20131;-66
2020/12/13 11:19:45;;;;;;;8.43;2.90;;;;;;;8.27;84.90;98434.50;5032072;28;20029;-69
2020/12/13 11:22:11;;;;;;;5.30;2.70;;;;;;;8.09;83.09;98435.81;5030345;28;20029;-66
2020/12/13 11:24:37;;;;;;;7.43;3.60;;;;;;;8.04;83.64;98443.69;5024931;28;20033;-71
2020/12/13 11:27:06;;;;;;;5.38;2.80;;;;;;;7.83;84.07;98425.69;5032404;28;20076;-73
2020/12/13 11:29:32;;;;;;;7.95;4.65;;;;;;;7.91;84.05;98435.47;5031902;28;20517;-73
2020/12/13 11:31:57;;;;;;;6.57;3.53;;;;;;;7.90;83.39;98423.88;5032121;28;20033;-73
2020/12/13 11:34:22;;;;;;;4.63;2.70;;;;;;;7.80;83.69;98436.00;5031149;28;20045;-73
2020/12/13 11:36:47;;;;;;;5.97;3.03;;;;;;;7.78;83.65;98428.16;5020602;28;20025;-73
2020/12/13 11:39:13;;;;;;;7.18;3.30;;;;;;;7.94;83.39;98418.09;5032378;28;20078;-72
2020/12/13 11:41:38;;;;;;;5.90;3.47;;;;;;;8.11;83.13;98431.06;5030660;28;20037;-73
2020/12/13 11:44:03;;;;;;;5.93;2.60;;;;;;;8.43;81.98;98433.38;5029361;28;20029;-73